createdAt,value
2022-11-10T00:02:44.271Z,10.20
2022-11-10T00:05:30.340Z,10.30
2022-11-10T00:08:15.988Z,10.20
2022-11-10T00:11:07.020Z,10.20
2022-11-10T00:14:10.905Z,10.10
2022-11-10T00:17:02.464Z,10.00
2022-11-10T00:19:47.612Z,10.00
2022-11-10T00:22:37.658Z,9.90
2022-11-10T00:25:23.996Z,9.90
2022-11-10T00:28:09.561Z,9.90
2022-11-10T00:30:55.497Z,9.80
2022-11-10T00:33:42.855Z,9.90
2022-11-10T00:36:28.274Z,9.90
2022-11-10T00:39:13.608Z,9.80
2022-11-10T00:41:59.319Z,9.80
2022-11-10T00:44:44.652Z,9.80
2022-11-10T00:47:29.987Z,9.80
2022-11-10T00:50:15.520Z,9.80
2022-11-10T00:53:00.964Z,9.70
2022-11-10T00:55:46.442Z,9.60
2022-11-10T00:58:31.964Z,9.60
2022-11-10T01:01:18.897Z,9.60
2022-11-10T01:04:04.936Z,9.60
2022-11-10T01:06:51.866Z,9.50
2022-11-10T01:09:37.454Z,9.50
2022-11-10T01:12:22.980Z,9.50
2022-11-10T01:15:09.412Z,9.40
2022-11-10T01:17:56.105Z,9.50
2022-11-10T01:20:41.935Z,9.40
2022-11-10T01:23:27.537Z,9.40
2022-11-10T01:26:14.297Z,9.30
2022-11-10T01:28:59.725Z,9.40
2022-11-10T01:31:45.241Z,9.40
2022-11-10T01:34:30.773Z,9.30
2022-11-10T01:37:16.109Z,9.30
2022-11-10T01:40:01.732Z,9.30
2022-11-10T01:42:56.115Z,9.30
2022-11-10T01:45:48.699Z,9.30
2022-11-10T01:48:57.069Z,9.30
2022-11-10T01:52:07.795Z,9.30
2022-11-10T01:54:53.314Z,9.30
2022-11-10T01:57:39.924Z,9.30
2022-11-10T02:00:25.393Z,9.30
2022-11-10T02:03:31.098Z,9.30
2022-11-10T02:06:18.083Z,9.40
2022-11-10T02:09:03.737Z,9.30
2022-11-10T02:11:52.946Z,9.40
2022-11-10T02:14:38.732Z,9.30
2022-11-10T02:17:24.298Z,9.40
2022-11-10T02:20:13.631Z,9.30
2022-11-10T02:22:59.193Z,9.30
2022-11-10T02:25:44.771Z,9.30
2022-11-10T02:28:34.135Z,9.20
2022-11-10T02:31:19.458Z,9.30
2022-11-10T02:34:04.900Z,9.20
2022-11-10T02:36:50.336Z,9.30
2022-11-10T02:39:36.190Z,9.20
2022-11-10T02:42:21.371Z,9.30
2022-11-10T02:45:08.782Z,9.20
2022-11-10T02:47:54.243Z,9.20
2022-11-10T02:50:39.934Z,9.20
2022-11-10T02:53:25.439Z,9.30
2022-11-10T02:56:10.756Z,9.30
2022-11-10T02:58:56.176Z,9.20
2022-11-10T03:01:41.760Z,9.20
2022-11-10T03:04:27.137Z,9.20
2022-11-10T03:07:12.508Z,9.20
2022-11-10T03:09:57.849Z,9.20
2022-11-10T03:12:43.356Z,9.30
2022-11-10T03:15:29.446Z,9.30
2022-11-10T03:18:14.927Z,9.40
2022-11-10T03:21:00.484Z,9.40
2022-11-10T03:23:45.860Z,9.50
2022-11-10T03:26:31.304Z,9.50
2022-11-10T03:29:16.863Z,9.40
2022-11-10T03:32:02.246Z,9.40
2022-11-10T03:34:47.781Z,9.50
2022-11-10T03:37:33.245Z,9.50
2022-11-10T03:40:18.797Z,9.40
2022-11-10T03:43:04.280Z,9.30
2022-11-10T03:45:49.723Z,9.30
2022-11-10T03:48:35.280Z,9.20
2022-11-10T03:51:21.588Z,9.20
2022-11-10T03:54:06.901Z,9.20
2022-11-10T03:56:52.306Z,9.20
2022-11-10T03:59:37.780Z,9.20
2022-11-10T04:02:23.409Z,9.20
2022-11-10T04:05:28.494Z,9.20
2022-11-10T04:08:34.957Z,9.10
2022-11-10T04:11:39.260Z,9.20
2022-11-10T04:14:43.438Z,9.20
2022-11-10T04:17:29.091Z,9.10
2022-11-10T04:20:14.546Z,9.10
2022-11-10T04:23:18.764Z,9.10
2022-11-10T04:26:31.074Z,9.00
2022-11-10T04:29:19.296Z,9.10
2022-11-10T04:32:04.604Z,9.00
2022-11-10T04:34:49.836Z,9.00
2022-11-10T04:37:35.563Z,9.00
2022-11-10T04:40:21.173Z,9.00
2022-11-10T04:43:06.452Z,9.00
2022-11-10T04:45:51.948Z,9.00
2022-11-10T04:48:37.427Z,8.90
2022-11-10T04:51:25.897Z,9.00
2022-11-10T04:54:11.960Z,9.00
2022-11-10T04:56:57.703Z,8.90
2022-11-10T04:59:42.865Z,8.90
2022-11-10T05:02:28.317Z,8.90
2022-11-10T05:05:13.864Z,8.90
2022-11-10T05:07:59.962Z,8.90
2022-11-10T05:10:45.096Z,8.90
2022-11-10T05:13:30.985Z,8.90
2022-11-10T05:16:16.592Z,8.80
2022-11-10T05:19:02.236Z,8.80
2022-11-10T05:21:47.749Z,8.90
2022-11-10T05:24:33.274Z,8.90
2022-11-10T05:27:18.656Z,8.90
2022-11-10T05:30:04.568Z,8.80
2022-11-10T05:32:50.209Z,8.90
2022-11-10T05:35:36.797Z,8.90
2022-11-10T05:38:22.316Z,8.90
2022-11-10T05:41:07.728Z,8.80
2022-11-10T05:43:53.180Z,9.00
2022-11-10T05:46:38.696Z,9.00
2022-11-10T05:49:24.112Z,9.10
2022-11-10T05:52:09.589Z,9.20
2022-11-10T05:54:55.585Z,9.20
2022-11-10T05:57:48.581Z,9.30
2022-11-10T06:00:34.317Z,9.20
2022-11-10T06:03:20.791Z,9.20
2022-11-10T06:06:06.547Z,9.10
2022-11-10T06:08:52.159Z,9.10
2022-11-10T06:11:37.577Z,9.00
2022-11-10T06:14:22.976Z,9.00
2022-11-10T06:17:08.436Z,9.10
2022-11-10T06:19:54.064Z,9.00
2022-11-10T06:22:39.784Z,9.00
2022-11-10T06:25:25.327Z,9.00
2022-11-10T06:28:11.099Z,9.00
2022-11-10T06:30:59.068Z,8.90
2022-11-10T06:33:44.316Z,8.90
2022-11-10T06:36:29.767Z,8.90
2022-11-10T06:39:15.209Z,8.90
2022-11-10T06:42:00.869Z,8.80
2022-11-10T06:44:46.036Z,8.90
2022-11-10T06:47:31.960Z,8.90
2022-11-10T06:50:17.356Z,8.90
2022-11-10T06:53:03.343Z,8.90
2022-11-10T06:55:48.790Z,9.00
2022-11-10T06:58:34.207Z,9.00
2022-11-10T07:01:22.578Z,9.00
2022-11-10T07:04:19.663Z,9.00
2022-11-10T07:07:05.807Z,9.10
2022-11-10T07:09:51.550Z,9.10
2022-11-10T07:12:36.973Z,9.10
2022-11-10T07:15:22.441Z,9.20
2022-11-10T07:18:08.126Z,9.20
2022-11-10T07:20:53.349Z,9.40
2022-11-10T07:23:39.034Z,9.50
2022-11-10T07:26:24.549Z,9.60
2022-11-10T07:29:10.115Z,9.80
2022-11-10T07:31:56.457Z,9.80
2022-11-10T07:34:41.957Z,9.70
2022-11-10T07:37:27.490Z,9.80
2022-11-10T07:40:12.930Z,9.90
2022-11-10T07:42:58.672Z,10.00
2022-11-10T07:45:43.871Z,10.00
2022-11-10T07:48:29.389Z,10.00
2022-11-10T07:51:15.076Z,10.20
2022-11-10T07:54:00.513Z,10.20
2022-11-10T07:56:46.544Z,10.30
2022-11-10T07:59:31.775Z,10.30
2022-11-10T08:02:17.324Z,10.30
2022-11-10T08:05:02.916Z,10.40
2022-11-10T08:07:48.343Z,10.50
2022-11-10T08:10:35.871Z,10.60
2022-11-10T08:13:21.688Z,10.60
2022-11-10T08:16:07.587Z,10.60
2022-11-10T08:18:53.171Z,10.70
2022-11-10T08:21:38.523Z,10.80
2022-11-10T08:24:24.023Z,10.80
2022-11-10T08:27:09.443Z,10.90
2022-11-10T08:29:54.855Z,11.00
2022-11-10T08:32:40.367Z,11.10
2022-11-10T08:35:27.310Z,11.20
2022-11-10T08:38:18.101Z,11.20
2022-11-10T08:41:03.307Z,11.20
2022-11-10T08:43:48.640Z,11.20
2022-11-10T08:46:34.055Z,11.20
2022-11-10T08:49:19.617Z,11.30
2022-11-10T08:52:05.079Z,11.40
2022-11-10T08:54:50.375Z,11.40
2022-11-10T08:57:35.838Z,11.50
2022-11-10T09:00:21.402Z,11.50
2022-11-10T09:03:14.749Z,11.60
2022-11-10T09:06:00.105Z,11.60
2022-11-10T09:08:45.619Z,11.70
2022-11-10T09:11:31.136Z,11.70
2022-11-10T09:14:16.439Z,11.80
2022-11-10T09:17:01.935Z,11.90
2022-11-10T09:19:47.569Z,12.00
2022-11-10T09:22:34.532Z,12.00
2022-11-10T09:25:20.782Z,12.10
2022-11-10T09:28:06.246Z,12.10
2022-11-10T09:30:52.997Z,12.20
2022-11-10T09:33:38.440Z,12.30
2022-11-10T09:36:23.838Z,12.30
2022-11-10T09:39:09.281Z,12.40
2022-11-10T09:41:54.904Z,12.50
2022-11-10T09:44:50.088Z,12.60
2022-11-10T09:47:58.299Z,12.60
2022-11-10T09:51:01.815Z,12.60
2022-11-10T09:54:05.836Z,12.60
2022-11-10T09:56:53.638Z,12.70
2022-11-10T09:59:39.482Z,12.80
2022-11-10T10:02:30.847Z,12.80
2022-11-10T10:05:35.407Z,12.70
2022-11-10T10:08:39.264Z,12.80
2022-11-10T10:11:50.532Z,13.00
2022-11-10T10:14:56.558Z,13.00
2022-11-10T10:18:06.421Z,13.10
2022-11-10T10:21:06.010Z,13.10
2022-11-10T10:24:19.952Z,13.10
2022-11-10T10:27:06.185Z,13.10
2022-11-10T10:29:52.776Z,13.20
2022-11-10T10:32:37.932Z,13.30
2022-11-10T10:35:23.471Z,13.30
2022-11-10T10:38:20.214Z,13.30
2022-11-10T10:41:33.243Z,13.40
2022-11-10T10:44:20.397Z,13.40
2022-11-10T10:47:05.834Z,13.50
2022-11-10T10:49:51.359Z,13.50
2022-11-10T10:52:36.768Z,13.50
2022-11-10T10:55:29.158Z,13.50
2022-11-10T10:58:26.117Z,13.60
2022-11-10T11:01:18.761Z,13.70
2022-11-10T11:04:36.322Z,13.70
2022-11-10T11:07:24.978Z,13.80
2022-11-10T11:10:28.839Z,13.80
2022-11-10T11:13:25.743Z,13.90
2022-11-10T11:16:12.678Z,13.90
2022-11-10T11:18:58.902Z,13.90
2022-11-10T11:22:04.616Z,13.90
2022-11-10T11:25:26.958Z,14.00
2022-11-10T11:28:36.490Z,14.10
2022-11-10T11:31:42.823Z,14.00
2022-11-10T11:34:59.824Z,14.10
2022-11-10T11:37:54.624Z,14.20
2022-11-10T11:40:40.016Z,14.20
2022-11-10T11:43:28.640Z,14.20
2022-11-10T11:46:34.573Z,14.30
2022-11-10T11:49:40.688Z,14.30
2022-11-10T11:52:36.215Z,14.30
2022-11-10T11:55:44.595Z,14.40
2022-11-10T11:58:46.044Z,14.40
2022-11-10T12:02:04.172Z,14.40
2022-11-10T12:05:20.243Z,14.40
2022-11-10T12:08:05.874Z,14.40
2022-11-10T12:11:26.555Z,14.40
2022-11-10T12:14:30.510Z,14.50
2022-11-10T12:17:37.400Z,14.50
2022-11-10T12:20:51.215Z,14.60
2022-11-10T12:24:08.849Z,14.60
2022-11-10T12:27:09.137Z,14.70
2022-11-10T12:30:15.179Z,14.80
2022-11-10T12:33:12.494Z,14.80
2022-11-10T12:35:59.736Z,14.80
2022-11-10T12:39:00.106Z,14.80
2022-11-10T12:41:57.964Z,14.80
2022-11-10T12:44:49.187Z,14.70
2022-11-10T12:47:43.489Z,14.70
2022-11-10T12:51:02.183Z,14.70
2022-11-10T12:53:48.652Z,14.70
2022-11-10T12:56:47.838Z,14.70
2022-11-10T12:59:36.363Z,14.70
2022-11-10T13:02:43.603Z,14.70
2022-11-10T13:05:41.071Z,14.80
2022-11-10T13:08:30.932Z,14.80
2022-11-10T13:11:16.536Z,14.80
2022-11-10T13:14:04.416Z,14.80
2022-11-10T13:16:55.778Z,14.90
2022-11-10T13:19:40.898Z,15.00
2022-11-10T13:22:42.873Z,15.00
2022-11-10T13:25:40.052Z,14.90
2022-11-10T13:28:47.230Z,14.80
2022-11-10T13:31:32.402Z,14.80
2022-11-10T13:34:41.539Z,14.80
2022-11-10T13:37:29.936Z,14.80
2022-11-10T13:40:24.526Z,14.80
2022-11-10T13:43:20.596Z,14.70
2022-11-10T13:46:06.084Z,14.70
2022-11-10T13:49:16.045Z,14.80
2022-11-10T13:52:17.098Z,14.80
2022-11-10T13:55:16.352Z,14.70
2022-11-10T13:58:04.311Z,14.70
2022-11-10T14:01:11.396Z,14.80
2022-11-10T14:04:00.689Z,14.70
2022-11-10T14:06:51.244Z,14.70
2022-11-10T14:09:42.887Z,14.70
2022-11-10T14:12:50.764Z,14.70
2022-11-10T14:15:40.033Z,14.50
2022-11-10T14:18:38.626Z,14.50
2022-11-10T14:21:45.454Z,14.30
2022-11-10T14:24:54.349Z,14.30
2022-11-10T14:27:40.636Z,14.30
2022-11-10T14:30:28.982Z,14.30
2022-11-10T14:33:15.344Z,14.20
2022-11-10T14:36:02.366Z,14.20
2022-11-10T14:38:58.135Z,14.20
2022-11-10T14:41:51.029Z,14.10
2022-11-10T14:44:36.670Z,14.00
2022-11-10T14:47:26.147Z,13.90
2022-11-10T14:50:14.630Z,13.90
2022-11-10T14:53:31.298Z,13.80
2022-11-10T14:56:24.217Z,13.80
2022-11-10T14:59:12.582Z,13.80
2022-11-10T15:02:00.722Z,13.70
2022-11-10T15:04:50.156Z,13.70
2022-11-10T15:07:35.791Z,13.70
2022-11-10T15:10:47.570Z,13.70
2022-11-10T15:13:37.143Z,13.70
2022-11-10T15:16:28.223Z,13.70
2022-11-10T15:19:30.383Z,13.70
2022-11-10T15:22:39.162Z,13.70
2022-11-10T15:25:31.299Z,13.60
2022-11-10T15:28:34.725Z,13.60
2022-11-10T15:31:31.928Z,13.60
2022-11-10T15:34:31.137Z,13.50
2022-11-10T15:37:30.212Z,13.50
2022-11-10T15:40:30.343Z,13.40
2022-11-10T15:43:27.350Z,13.30
2022-11-10T15:46:19.748Z,13.20
2022-11-10T15:49:15.553Z,13.10
2022-11-10T15:52:11.607Z,13.10
2022-11-10T15:54:56.890Z,13.00
2022-11-10T15:57:42.469Z,13.00
2022-11-10T16:00:27.925Z,12.90
2022-11-10T16:03:16.625Z,12.80
2022-11-10T16:06:02.042Z,12.60
2022-11-10T16:08:47.550Z,12.50
2022-11-10T16:11:35.788Z,12.50
2022-11-10T16:14:21.383Z,12.40
2022-11-10T16:17:10.885Z,12.30
2022-11-10T16:19:56.571Z,12.30
2022-11-10T16:22:41.964Z,12.30
2022-11-10T16:25:28.024Z,12.20
2022-11-10T16:28:17.777Z,12.20
2022-11-10T16:31:03.075Z,12.20
2022-11-10T16:33:49.673Z,12.20
2022-11-10T16:36:35.176Z,12.30
2022-11-10T16:39:21.042Z,12.20
2022-11-10T16:42:06.603Z,12.10
2022-11-10T16:44:52.166Z,11.90
2022-11-10T16:47:37.567Z,11.80
2022-11-10T16:50:31.306Z,11.80
2022-11-10T16:53:18.417Z,11.60
2022-11-10T16:56:03.882Z,11.60
2022-11-10T16:58:49.276Z,11.50
2022-11-10T17:01:36.341Z,11.50
2022-11-10T17:04:21.943Z,11.50
2022-11-10T17:07:13.785Z,11.40
2022-11-10T17:10:01.389Z,11.40
2022-11-10T17:12:47.678Z,11.40
2022-11-10T17:15:35.424Z,11.40
2022-11-10T17:18:24.348Z,11.40
2022-11-10T17:21:12.838Z,11.60
2022-11-10T17:23:58.720Z,11.60
2022-11-10T17:26:44.907Z,11.60
2022-11-10T17:29:30.291Z,11.60
2022-11-10T17:32:15.714Z,11.60
2022-11-10T17:35:01.055Z,11.60
2022-11-10T17:37:50.668Z,11.50
2022-11-10T17:40:36.338Z,11.50
2022-11-10T17:43:22.683Z,11.50
2022-11-10T17:46:07.968Z,11.50
2022-11-10T17:49:00.056Z,11.40
2022-11-10T17:51:48.064Z,11.30
2022-11-10T17:54:33.428Z,11.30
2022-11-10T17:57:18.895Z,11.20
2022-11-10T18:00:05.367Z,11.20
2022-11-10T18:02:55.335Z,11.10
2022-11-10T18:05:41.800Z,11.00
2022-11-10T18:08:27.234Z,11.00
2022-11-10T18:11:16.033Z,11.00
2022-11-10T18:14:02.194Z,11.00
2022-11-10T18:16:47.603Z,11.00
2022-11-10T18:19:33.058Z,10.90
2022-11-10T18:22:18.683Z,10.90
2022-11-10T18:25:05.080Z,10.80
2022-11-10T18:27:50.274Z,10.90
2022-11-10T18:30:37.349Z,11.00
2022-11-10T18:33:23.053Z,10.90
2022-11-10T18:36:08.988Z,10.90
2022-11-10T18:38:54.571Z,11.00
2022-11-10T18:41:48.798Z,10.80
2022-11-10T18:44:37.335Z,10.80
2022-11-10T18:47:22.606Z,10.70
2022-11-10T18:50:09.070Z,10.60
2022-11-10T18:52:54.424Z,10.60
2022-11-10T18:55:45.210Z,10.60
2022-11-10T18:58:30.802Z,10.60
2022-11-10T19:01:16.809Z,10.60
2022-11-10T19:04:01.900Z,10.50
2022-11-10T19:06:47.545Z,10.50
2022-11-10T19:09:33.316Z,10.50
2022-11-10T19:12:22.602Z,10.50
2022-11-10T19:15:11.195Z,10.50
2022-11-10T19:17:56.813Z,10.40
2022-11-10T19:20:42.425Z,10.30
2022-11-10T19:23:27.514Z,10.20
2022-11-10T19:26:19.376Z,10.20
2022-11-10T19:29:07.631Z,10.20
2022-11-10T19:31:53.184Z,10.20
2022-11-10T19:34:38.768Z,10.10
2022-11-10T19:37:24.211Z,10.10
2022-11-10T19:40:10.332Z,10.10
2022-11-10T19:42:55.792Z,10.00
2022-11-10T19:45:42.328Z,10.00
2022-11-10T19:48:27.807Z,10.00
2022-11-10T19:51:14.992Z,10.10
2022-11-10T19:54:02.664Z,10.00
2022-11-10T19:56:47.821Z,10.00
2022-11-10T19:59:33.383Z,9.90
2022-11-10T20:02:18.850Z,9.90
2022-11-10T20:05:13.418Z,9.90
2022-11-10T20:08:15.431Z,10.00
2022-11-10T20:11:06.789Z,10.00
2022-11-10T20:13:55.370Z,10.00
2022-11-10T20:16:41.048Z,10.00
2022-11-10T20:19:26.556Z,10.00
2022-11-10T20:22:12.884Z,10.00
2022-11-10T20:24:58.569Z,9.90
2022-11-10T20:27:44.029Z,9.90
2022-11-10T20:30:29.869Z,9.80
2022-11-10T20:33:15.173Z,9.70
2022-11-10T20:36:05.152Z,9.70
2022-11-10T20:38:56.382Z,9.70
2022-11-10T20:41:41.820Z,9.70
2022-11-10T20:44:27.391Z,9.60
2022-11-10T20:47:12.875Z,9.50
2022-11-10T20:49:58.648Z,9.60
2022-11-10T20:52:44.197Z,9.60
2022-11-10T20:55:52.135Z,9.60
2022-11-10T20:58:35.266Z,9.50
2022-11-10T21:01:21.101Z,9.60
2022-11-10T21:04:06.651Z,9.60
2022-11-10T21:06:52.052Z,9.60
2022-11-10T21:09:37.411Z,9.50
2022-11-10T21:12:41.353Z,9.50
2022-11-10T21:15:27.261Z,9.50
2022-11-10T21:18:12.703Z,9.40
2022-11-10T21:20:58.423Z,9.40
2022-11-10T21:23:43.604Z,9.40
2022-11-10T21:26:29.153Z,9.40
2022-11-10T21:29:14.697Z,9.50
2022-11-10T21:32:00.530Z,9.40
2022-11-10T21:34:47.257Z,9.50
2022-11-10T21:37:33.194Z,9.50
2022-11-10T21:40:19.108Z,9.40
2022-11-10T21:43:04.763Z,9.40
2022-11-10T21:45:56.803Z,9.40
2022-11-10T21:48:42.485Z,9.50
2022-11-10T21:51:27.792Z,9.50
2022-11-10T21:54:13.232Z,9.50
2022-11-10T21:56:58.591Z,9.50
2022-11-10T21:59:44.069Z,9.60
2022-11-10T22:02:29.611Z,9.50
2022-11-10T22:05:15.038Z,9.50
2022-11-10T22:08:00.565Z,9.60
2022-11-10T22:11:04.356Z,9.60
2022-11-10T22:14:08.482Z,9.50
2022-11-10T22:17:12.516Z,9.50
2022-11-10T22:19:58.071Z,9.50
2022-11-10T22:22:44.323Z,9.50
2022-11-10T22:25:29.561Z,9.50
2022-11-10T22:28:14.841Z,9.30
2022-11-10T22:31:03.955Z,9.40
2022-11-10T22:33:49.371Z,9.40
2022-11-10T22:36:34.773Z,9.20
2022-11-10T22:39:20.445Z,9.20
2022-11-10T22:42:24.509Z,9.20
2022-11-10T22:45:09.976Z,9.20
2022-11-10T22:48:14.493Z,9.30
2022-11-10T22:51:00.660Z,9.30
2022-11-10T22:53:46.047Z,9.30
2022-11-10T22:56:32.999Z,9.30
2022-11-10T22:59:19.511Z,9.10
2022-11-10T23:02:04.879Z,9.10
2022-11-10T23:04:50.151Z,9.00
2022-11-10T23:07:35.977Z,9.10
2022-11-10T23:10:21.275Z,9.00
2022-11-10T23:13:06.714Z,9.00
2022-11-10T23:15:54.260Z,9.00
2022-11-10T23:18:42.208Z,9.00
2022-11-10T23:21:29.931Z,9.00
2022-11-10T23:24:18.302Z,9.00
2022-11-10T23:27:03.548Z,9.10
2022-11-10T23:29:49.197Z,9.10
2022-11-10T23:32:34.588Z,9.10
2022-11-10T23:35:20.463Z,9.10
2022-11-10T23:38:06.093Z,9.10
2022-11-10T23:40:56.515Z,9.10
2022-11-10T23:43:44.639Z,9.00
2022-11-10T23:46:30.070Z,8.90
2022-11-10T23:49:15.838Z,8.80
2022-11-10T23:52:00.981Z,8.80
2022-11-10T23:54:46.601Z,8.70
2022-11-10T23:57:31.947Z,8.60
